TAF Text Data
IDs:
Format:
Raw Decoded Include METAR

Data at: 0826 UTC 27 Sep 2020

METAR for:KLBE (Latrobe/Palmer Rgnl, PA, US)
Text:KLBE 270815Z AUTO 00000KT 8SM CLR 13/13 A2996 RMK AO2
Temperature: 13.0°C ( 55°F)
Dewpoint: 13.0°C ( 55°F) [RH = 100%]
Pressure (altimeter):29.96 inches Hg (1014.6 mb)
Winds:calm
Visibility: 8 sm ( 13 km)
Ceiling:at least 12,000 feet AGL
Clouds:sky clear below 12,000 feet AGL
QC Flag:automated observation with no human augmentation

TAF for:KLBE (Latrobe/Palmer Rgnl, PA, US) issued at 0527 UTC 27 Sep 2020
Text:KLBE 270527Z 2706/2806 19003KT P6SM SKC
Forecast period:0600 to 1500 UTC 27 September 2020
Forecast type:FROM: standard forecast or significant change
Winds:from the S (190 degrees) at 3 MPH (3 knots; 1.5 m/s)
Visibility:6 or more sm (10+ km)
Ceiling:at least 12,000 feet AGL
Clouds:clear skies
Text:FM271500 22006KT P6SM SCT030
Forecast period:1500 UTC 27 September 2020 to 0600 UTC 28 September 2020
Forecast type:FROM: standard forecast or significant change
Winds:from the SW (220 degrees) at 7 MPH (6 knots; 3.1 m/s)
Visibility:6 or more sm (10+ km)
Ceiling:at least 12,000 feet AGL
Clouds: scattered clouds at 3000 feet AGL